Kiryat Shmone, Israel
Current Conditions -  °F | °C
As of 4:50 PM on Wednesday 28 Jan 2015 (Local Time) from LLHA Reporting Station
Few Clouds Few Clouds  
Wind Chill: 63°   Ceiling: Unl
Heat Index: 63°   Visibility: 6mi
Dew Point: 46°   Wind: 6mph
Humidity: 55%   Direction: 310°NW
Pressure: 29.94"   Gusts: NA
Location:  33.18°N, 35.57°E
Report Text: LLHA 281350Z 31005KT 9999 FEW030 17/08 Q1014 RMK BKN070
Loading
Personal Weather Stations






























Interactive Weather Map New forecast layout! Learn more

10-Day Weather Forecast

Advertisements
Track Severe Weather on mobile